Time;durP1;ratioP1;P1;durP2;ratioP2;P2;SDS_P1;SDS_P2;PMS_P1;PMS_P2;Temp;Humidity;BMP_temperature;BMP_pressure;BME280_temperature;BME280_humidity;BME280_pressure;Samples;Min_cycle;Max_cycle;Signal;HPM_P1;HPM_P2
2022/09/21 00:01:13;;;;;;;6.80;4.53;;;;;;;;;;5053129;28;20230;-87
2022/09/21 00:03:41;;;;;;;8.60;3.67;;;;;;;;;;5033132;28;20237;-87
2022/09/21 00:06:09;;;;;;;4.23;3.80;;;;;;;;;;5033396;28;20207;-87
2022/09/21 00:08:36;;;;;;;4.30;3.60;;;;;;;;;;5032609;28;20702;-86
2022/09/21 00:11:04;;;;;;;4.43;3.93;;;;;;;;;;5033862;28;20234;-87
2022/09/21 00:13:33;;;;;;;4.03;3.60;;;;;;;;;;5034145;28;20264;-87
2022/09/21 00:16:01;;;;;;;8.00;3.90;;;;;;;;;;5062464;28;20206;-86
2022/09/21 00:18:28;;;;;;;4.27;3.43;;;;;;;;;;5055835;28;20596;-88
2022/09/21 00:20:55;;;;;;;5.57;3.90;;;;;;;;;;5051770;28;20233;-87
2022/09/21 00:23:22;;;;;;;5.00;3.67;;;;;;;;;;5034539;28;20218;-87
2022/09/21 00:25:50;;;;;;;6.13;4.60;;;;;;;;;;5039492;28;20237;-86
2022/09/21 00:28:18;;;;;;;5.20;3.90;;;;;;;;;;5055922;28;20216;-87
2022/09/21 00:30:50;;;;;;;5.27;4.10;;;;;;;;;;5050479;28;20226;-87
2022/09/21 00:33:17;;;;;;;4.17;3.77;;;;;;;;;;5045873;28;20218;-87
2022/09/21 00:35:45;;;;;;;5.37;3.70;;;;;;;;;;5044039;28;20209;-87
2022/09/21 00:38:12;;;;;;;6.43;4.07;;;;;;;;;;5050627;28;20209;-87
2022/09/21 00:40:39;;;;;;;8.93;3.90;;;;;;;;;;5052244;28;20218;-87
2022/09/21 00:43:13;;;;;;;6.30;3.33;;;;;;;;;;5036703;28;20213;-87
2022/09/21 00:45:40;;;;;;;4.20;3.77;;;;;;;;;;5039362;28;20226;-86
2022/09/21 00:48:09;;;;;;;5.10;4.17;;;;;;;;;;5035099;28;20222;-87
2022/09/21 00:50:38;;;;;;;4.07;3.67;;;;;;;;;;5038354;28;20629;-86
2022/09/21 00:53:06;;;;;;;5.23;3.80;;;;;;;;;;5047647;28;20198;-87
2022/09/21 00:55:36;;;;;;;6.47;3.80;;;;;;;;;;5046749;28;20241;-87
2022/09/21 00:58:07;;;;;;;3.77;3.40;;;;;;;;;;5055649;28;20194;-87
2022/09/21 01:00:34;;;;;;;4.80;4.20;;;;;;;;;;5045867;28;20226;-87
2022/09/21 01:03:01;;;;;;;4.93;3.43;;;;;;;;;;5034783;28;20217;-86
2022/09/21 01:05:30;;;;;;;4.10;2.90;;;;;;;;;;5034026;28;20230;-87
2022/09/21 01:07:58;;;;;;;3.50;3.20;;;;;;;;;;5038020;28;20197;-87
2022/09/21 01:10:27;;;;;;;3.50;3.00;;;;;;;;;;5053834;28;20234;-87
2022/09/21 01:13:05;;;;;;;3.53;3.23;;;;;;;;;;5035655;28;20622;-86
2022/09/21 01:15:36;;;;;;;4.13;3.70;;;;;;;;;;5036703;28;20207;-86
2022/09/21 01:18:08;;;;;;;3.77;3.43;;;;;;;;;;5035880;28;20265;-86
2022/09/21 01:21:00;;;;;;;3.90;3.50;;;;;;;;;;5035737;28;20245;-87
2022/09/21 01:23:36;;;;;;;4.13;3.67;;;;;;;;;;5045942;28;20726;-86
2022/09/21 01:26:08;;;;;;;4.30;3.00;;;;;;;;;;5050395;28;20191;-86
2022/09/21 01:28:41;;;;;;;4.30;2.90;;;;;;;;;;5034715;28;20292;-86
2022/09/21 01:31:12;;;;;;;5.33;2.93;;;;;;;;;;5043587;28;21095;-87
2022/09/21 01:33:41;;;;;;;3.10;2.80;;;;;;;;;;5042794;28;20238;-87
2022/09/21 01:36:09;;;;;;;3.23;2.93;;;;;;;;;;5049846;28;20194;-87
2022/09/21 01:38:39;;;;;;;3.03;2.70;;;;;;;;;;5052134;28;20238;-87
2022/09/21 01:41:07;;;;;;;4.10;2.70;;;;;;;;;;5042668;28;20225;-86
2022/09/21 01:43:36;;;;;;;3.30;3.00;;;;;;;;;;5045694;28;20238;-87
2022/09/21 01:46:04;;;;;;;4.83;2.90;;;;;;;;;;5037464;28;20203;-87
2022/09/21 01:48:34;;;;;;;4.17;2.93;;;;;;;;;;5050431;28;20242;-86
2022/09/21 01:51:05;;;;;;;6.20;3.50;;;;;;;;;;5056640;28;20303;-87
2022/09/21 01:53:34;;;;;;;4.87;4.47;;;;;;;;;;5043625;28;20230;-87
2022/09/21 01:56:05;;;;;;;3.30;3.10;;;;;;;;;;5060184;28;20194;-86
2022/09/21 01:58:34;;;;;;;6.97;3.10;;;;;;;;;;5036494;28;20601;-87
2022/09/21 02:01:01;;;;;;;3.23;2.87;;;;;;;;;;5040476;28;20222;-86
2022/09/21 02:03:31;;;;;;;5.33;3.20;;;;;;;;;;5042076;28;20238;-87
2022/09/21 02:06:00;;;;;;;4.60;3.10;;;;;;;;;;5038373;28;20209;-87
2022/09/21 02:08:27;;;;;;;5.17;3.17;;;;;;;;;;5036653;28;20238;-87
2022/09/21 02:10:54;;;;;;;5.10;3.03;;;;;;;;;;5054601;28;20225;-87
2022/09/21 02:13:24;;;;;;;9.80;4.07;;;;;;;;;;5054822;28;20212;-86
2022/09/21 02:15:57;;;;;;;5.13;3.43;;;;;;;;;;5060675;28;20198;-86
2022/09/21 02:18:33;;;;;;;7.30;3.73;;;;;;;;;;5044233;28;20206;-87
2022/09/21 02:21:03;;;;;;;8.90;4.10;;;;;;;;;;5038489;28;21533;-87
2022/09/21 02:23:35;;;;;;;5.33;3.93;;;;;;;;;;5047633;28;20234;-87
2022/09/21 02:26:05;;;;;;;10.47;4.23;;;;;;;;;;5035105;28;20195;-87
2022/09/21 02:28:38;;;;;;;9.60;3.90;;;;;;;;;;5034907;28;20234;-87
2022/09/21 02:31:08;;;;;;;10.27;3.90;;;;;;;;;;5022666;28;20635;-86
2022/09/21 02:33:44;;;;;;;11.17;4.70;;;;;;;;;;5047992;28;20237;-87
2022/09/21 02:36:14;;;;;;;5.70;3.90;;;;;;;;;;5047613;28;20228;-88
2022/09/21 02:38:45;;;;;;;4.77;3.43;;;;;;;;;;5047990;28;20241;-86
2022/09/21 02:41:14;;;;;;;4.17;3.30;;;;;;;;;;5030181;28;20297;-87
2022/09/21 02:43:44;;;;;;;6.87;4.43;;;;;;;;;;5034876;28;20257;-87
2022/09/21 02:46:13;;;;;;;7.50;3.63;;;;;;;;;;5037416;28;20202;-87
2022/09/21 02:48:44;;;;;;;20.70;4.53;;;;;;;;;;5051294;28;20226;-87
2022/09/21 02:51:14;;;;;;;10.93;5.63;;;;;;;;;;5042728;28;20222;-86
2022/09/21 02:53:42;;;;;;;15.17;4.33;;;;;;;;;;5053871;28;20240;-87
2022/09/21 02:56:10;;;;;;;16.50;5.13;;;;;;;;;;5053967;28;20829;-87
2022/09/21 02:58:39;;;;;;;15.50;4.43;;;;;;;;;;5043332;28;20245;-87
2022/09/21 03:01:07;;;;;;;12.73;4.47;;;;;;;;;;5033974;28;20235;-87
2022/09/21 03:03:34;;;;;;;21.63;4.73;;;;;;;;;;5033636;28;20293;-87
2022/09/21 03:06:02;;;;;;;12.17;4.17;;;;;;;;;;5033757;28;20195;-86
2022/09/21 03:08:31;;;;;;;16.63;4.53;;;;;;;;;;5033236;28;20313;-87
2022/09/21 03:10:58;;;;;;;12.53;4.93;;;;;;;;;;5035864;28;20726;-87
2022/09/21 03:13:25;;;;;;;20.03;4.53;;;;;;;;;;5052110;28;20298;-86
2022/09/21 03:15:59;;;;;;;16.40;4.97;;;;;;;;;;5053050;28;20209;-86
2022/09/21 03:18:26;;;;;;;22.90;6.87;;;;;;;;;;5039040;28;20230;-87
2022/09/21 03:20:53;;;;;;;13.70;4.50;;;;;;;;;;5045325;28;20253;-87
2022/09/21 03:23:20;;;;;;;10.93;4.23;;;;;;;;;;5037662;28;20195;-86
2022/09/21 03:25:48;;;;;;;14.77;4.50;;;;;;;;;;5035799;28;20278;-87
2022/09/21 03:28:16;;;;;;;24.77;4.70;;;;;;;;;;5014499;28;20207;-87
2022/09/21 03:30:44;;;;;;;22.17;4.77;;;;;;;;;;5014063;28;20598;-87
2022/09/21 03:33:11;;;;;;;10.90;4.10;;;;;;;;;;5014027;28;20223;-87
2022/09/21 03:35:39;;;;;;;11.10;4.47;;;;;;;;;;5013895;28;20207;-87
2022/09/21 03:38:06;;;;;;;22.27;4.60;;;;;;;;;;5013752;28;20643;-87
2022/09/21 03:40:33;;;;;;;23.83;6.40;;;;;;;;;;5014264;28;20269;-87
2022/09/21 03:43:02;;;;;;;26.43;5.53;;;;;;;;;;5013985;28;20234;-87
2022/09/21 03:45:29;;;;;;;14.03;3.70;;;;;;;;;;5023910;28;20648;-88
2022/09/21 03:47:56;;;;;;;17.07;3.67;;;;;;;;;;5033619;28;20202;-87
2022/09/21 03:50:24;;;;;;;9.80;3.90;;;;;;;;;;5033406;28;20234;-87
2022/09/21 03:52:51;;;;;;;5.07;3.50;;;;;;;;;;5033640;28;20205;-86
2022/09/21 03:55:18;;;;;;;13.03;3.67;;;;;;;;;;5030363;28;20235;-87
2022/09/21 03:57:45;;;;;;;10.57;4.20;;;;;;;;;;5032857;28;20214;-87
2022/09/21 04:00:16;;;;;;;3.67;3.23;;;;;;;;;;5031553;28;20234;-88
2022/09/21 04:02:43;;;;;;;7.60;3.93;;;;;;;;;;5032902;28;20202;-87
2022/09/21 04:05:13;;;;;;;13.37;3.37;;;;;;;;;;5032324;28;20250;-86
2022/09/21 04:07:40;;;;;;;12.37;3.50;;;;;;;;;;5033081;28;20629;-87
2022/09/21 04:10:09;;;;;;;9.87;3.30;;;;;;;;;;5034492;28;20237;-89
2022/09/21 04:12:36;;;;;;;18.77;3.53;;;;;;;;;;5036475;28;20207;-87
2022/09/21 04:15:06;;;;;;;8.23;2.97;;;;;;;;;;5039753;28;20234;-89
2022/09/21 04:17:34;;;;;;;7.17;2.90;;;;;;;;;;5045448;28;20207;-88
2022/09/21 04:20:01;;;;;;;15.33;3.40;;;;;;;;;;5041544;28;20245;-89
2022/09/21 04:22:30;;;;;;;4.23;2.60;;;;;;;;;;5040558;28;20221;-87
2022/09/21 04:24:57;;;;;;;4.23;3.07;;;;;;;;;;5072709;22;20236;-87
2022/09/21 04:27:24;;;;;;;7.03;2.87;;;;;;;;;;5074809;28;20209;-87
2022/09/21 04:29:51;;;;;;;3.47;2.87;;;;;;;;;;5074040;28;20233;-87
2022/09/21 04:32:18;;;;;;;5.37;2.93;;;;;;;;;;5072647;28;20210;-86
2022/09/21 04:34:46;;;;;;;3.23;2.80;;;;;;;;;;5072523;28;20249;-85
2022/09/21 04:37:14;;;;;;;11.83;3.37;;;;;;;;;;5072902;28;20205;-85
2022/09/21 04:39:41;;;;;;;4.67;3.00;;;;;;;;;;5071058;28;20243;-85
2022/09/21 04:42:08;;;;;;;12.10;3.07;;;;;;;;;;5072859;28;20205;-86
2022/09/21 04:44:35;;;;;;;7.00;3.00;;;;;;;;;;5072695;28;20237;-87
2022/09/21 04:47:02;;;;;;;7.20;3.17;;;;;;;;;;5074889;28;20251;-84
2022/09/21 04:49:29;;;;;;;3.37;2.67;;;;;;;;;;5073921;28;20245;-85
2022/09/21 04:51:58;;;;;;;9.97;3.47;;;;;;;;;;5074187;28;20208;-85
2022/09/21 04:54:25;;;;;;;5.43;3.23;;;;;;;;;;5067389;28;20286;-86
2022/09/21 04:56:53;;;;;;;3.97;3.53;;;;;;;;;;5073837;28;20205;-85
2022/09/21 04:59:20;;;;;;;7.80;3.47;;;;;;;;;;5073349;28;20275;-85
2022/09/21 05:01:47;;;;;;;4.90;3.50;;;;;;;;;;5073789;28;20224;-86
2022/09/21 05:04:14;;;;;;;10.27;3.20;;;;;;;;;;5073547;28;20241;-85
2022/09/21 05:06:41;;;;;;;6.20;3.60;;;;;;;;;;5073877;28;20259;-86
2022/09/21 05:11:54;;;;;;;3.43;3.13;;;;;;;;;;5057057;28;20213;-86
2022/09/21 05:14:21;;;;;;;3.13;2.93;;;;;;;;;;5076688;28;20229;-87
2022/09/21 05:16:49;;;;;;;4.00;3.10;;;;;;;;;;5077334;28;20259;-86
2022/09/21 05:19:16;;;;;;;10.57;3.53;;;;;;;;;;5076410;28;20264;-86
2022/09/21 05:21:43;;;;;;;9.83;3.20;;;;;;;;;;5076744;28;20271;-86
2022/09/21 05:24:11;;;;;;;6.67;3.00;;;;;;;;;;5076285;28;20229;-86
2022/09/21 05:26:38;;;;;;;7.40;2.93;;;;;;;;;;5076877;28;20209;-86
2022/09/21 05:29:07;;;;;;;4.67;2.93;;;;;;;;;;5076379;28;20249;-86
2022/09/21 05:31:38;;;;;;;5.47;3.00;;;;;;;;;;5077128;28;20194;-85
2022/09/21 05:34:07;;;;;;;3.57;2.97;;;;;;;;;;5076727;28;20651;-86
2022/09/21 05:36:41;;;;;;;3.90;3.03;;;;;;;;;;5076648;28;20208;-86
2022/09/21 05:39:09;;;;;;;7.93;3.00;;;;;;;;;;5073747;28;20233;-87
2022/09/21 05:41:40;;;;;;;5.93;3.10;;;;;;;;;;5080303;28;20596;-85
2022/09/21 05:44:07;;;;;;;7.03;3.17;;;;;;;;;;5075889;28;20228;-86
2022/09/21 05:46:38;;;;;;;6.33;3.30;;;;;;;;;;5077482;28;20262;-86
2022/09/21 05:49:07;;;;;;;8.77;2.87;;;;;;;;;;5075506;28;20221;-86
2022/09/21 05:51:39;;;;;;;6.33;3.33;;;;;;;;;;5078143;28;20297;-85
2022/09/21 05:54:11;;;;;;;7.43;3.00;;;;;;;;;;5076308;28;20237;-87
2022/09/21 05:56:49;;;;;;;18.67;3.60;;;;;;;;;;5078117;28;20209;-86
2022/09/21 05:59:33;;;;;;;13.17;4.87;;;;;;;;;;5076890;28;20580;-87
2022/09/21 06:02:05;;;;;;;16.10;3.60;;;;;;;;;;5077029;28;20709;-86
2022/09/21 06:04:32;;;;;;;7.90;3.17;;;;;;;;;;5076924;28;20237;-87
2022/09/21 06:06:59;;;;;;;11.70;4.33;;;;;;;;;;5076760;28;20208;-87
2022/09/21 06:09:26;;;;;;;22.93;3.73;;;;;;;;;;5075970;28;20609;-87
2022/09/21 06:11:55;;;;;;;19.23;3.63;;;;;;;;;;5076380;28;20284;-87
2022/09/21 06:14:25;;;;;;;22.00;3.80;;;;;;;;;;5075469;28;20245;-87
2022/09/21 06:16:52;;;;;;;21.40;3.43;;;;;;;;;;5076070;28;20205;-87
2022/09/21 06:19:20;;;;;;;26.47;4.27;;;;;;;;;;5075049;28;20241;-87
2022/09/21 06:21:47;;;;;;;9.13;3.20;;;;;;;;;;5075723;28;20573;-87
2022/09/21 06:24:14;;;;;;;7.83;3.23;;;;;;;;;;5075050;28;20249;-85
2022/09/21 06:26:41;;;;;;;11.63;3.50;;;;;;;;;;5075540;28;20205;-86
2022/09/21 06:29:10;;;;;;;23.70;4.07;;;;;;;;;;5075987;28;20261;-86
2022/09/21 06:31:37;;;;;;;4.87;3.57;;;;;;;;;;5072984;28;20216;-86
2022/09/21 06:34:04;;;;;;;6.87;4.60;;;;;;;;;;5075978;28;20897;-87
2022/09/21 06:36:31;;;;;;;7.53;4.20;;;;;;;;;;5077967;28;20217;-87
2022/09/21 06:38:58;;;;;;;13.50;4.97;;;;;;;;;;5062602;28;20241;-87
2022/09/21 06:41:25;;;;;;;6.33;4.70;;;;;;;;;;5068291;28;20637;-87
2022/09/21 06:43:55;;;;;;;13.77;5.67;;;;;;;;;;5076153;28;20233;-87
2022/09/21 06:46:24;;;;;;;10.23;4.93;;;;;;;;;;5077841;28;20468;-87
2022/09/21 06:48:51;;;;;;;8.03;5.23;;;;;;;;;;5077145;28;20237;-87
2022/09/21 06:51:19;;;;;;;10.33;5.23;;;;;;;;;;5060950;28;20198;-87
2022/09/21 06:53:46;;;;;;;10.97;5.13;;;;;;;;;;5057272;28;20240;-87
2022/09/21 06:56:14;;;;;;;10.77;5.40;;;;;;;;;;5059850;28;20221;-87
2022/09/21 06:58:41;;;;;;;7.87;5.10;;;;;;;;;;5058727;28;20229;-87
2022/09/21 07:01:09;;;;;;;15.97;5.60;;;;;;;;;;5059182;28;20237;-86
2022/09/21 07:03:38;;;;;;;8.87;6.10;;;;;;;;;;5058322;28;20344;-88
2022/09/21 07:06:06;;;;;;;8.00;6.00;;;;;;;;;;5073244;28;20206;-88
2022/09/21 07:08:35;;;;;;;13.07;7.90;;;;;;;;;;5077489;28;20252;-87
2022/09/21 07:11:04;;;;;;;10.50;5.93;;;;;;;;;;5077460;28;20240;-87
2022/09/21 07:13:31;;;;;;;15.87;6.73;;;;;;;;;;5076421;28;20654;-87
2022/09/21 07:16:05;;;;;;;11.07;5.83;;;;;;;;;;5076983;28;20225;-87
2022/09/21 07:18:33;;;;;;;14.07;8.10;;;;;;;;;;5076687;28;20235;-88
2022/09/21 07:21:04;;;;;;;15.23;7.43;;;;;;;;;;5077064;28;20256;-88
2022/09/21 07:23:31;;;;;;;13.80;7.47;;;;;;;;;;5076957;28;20244;-87
2022/09/21 07:26:01;;;;;;;13.63;7.50;;;;;;;;;;5076348;28;20236;-87
2022/09/21 07:28:29;;;;;;;33.50;10.07;;;;;;;;;;5076093;28;20236;-87
2022/09/21 07:30:56;;;;;;;10.20;7.07;;;;;;;;;;5075015;28;20198;-87
2022/09/21 07:33:24;;;;;;;11.10;6.97;;;;;;;;;;5074276;28;21052;-87
2022/09/21 07:35:51;;;;;;;18.23;8.17;;;;;;;;;;5056438;28;20233;-88
2022/09/21 07:38:20;;;;;;;21.03;9.23;;;;;;;;;;5054124;28;20209;-86
2022/09/21 07:40:47;;;;;;;12.20;9.00;;;;;;;;;;5054187;28;20237;-87
2022/09/21 07:43:14;;;;;;;20.50;9.80;;;;;;;;;;5054501;28;20202;-86
2022/09/21 07:45:42;;;;;;;15.23;9.93;;;;;;;;;;5054507;28;20226;-87
2022/09/21 07:48:11;;;;;;;24.00;10.33;;;;;;;;;;5052714;28;20206;-86
2022/09/21 07:50:38;;;;;;;16.47;9.80;;;;;;;;;;5068942;28;20201;-87
2022/09/21 07:53:05;;;;;;;22.60;10.80;;;;;;;;;;5076169;28;20197;-87
2022/09/21 07:55:39;;;;;;;18.50;9.93;;;;;;;;;;5076764;28;20228;-86
2022/09/21 08:00:51;;;;;;;16.50;8.50;;;;;;;;;;5073507;28;20719;-87
2022/09/21 08:03:18;;;;;;;11.93;8.73;;;;;;;;;;5072753;28;20205;-87
2022/09/21 08:05:45;;;;;;;11.03;9.00;;;;;;;;;;5073062;28;20232;-86
2022/09/21 08:08:14;;;;;;;13.17;9.23;;;;;;;;;;5074498;28;20253;-87
2022/09/21 08:10:42;;;;;;;19.73;10.93;;;;;;;;;;5075497;28;20205;-87
2022/09/21 08:13:09;;;;;;;13.63;9.03;;;;;;;;;;5074234;28;20217;-87
2022/09/21 08:15:37;;;;;;;11.40;9.50;;;;;;;;;;5074099;28;20221;-87
2022/09/21 08:18:07;;;;;;;11.47;9.37;;;;;;;;;;5062481;28;20197;-87
2022/09/21 08:20:44;;;;;;;11.37;8.47;;;;;;;;;;5074347;28;20194;-87
2022/09/21 08:23:13;;;;;;;12.43;9.73;;;;;;;;;;5074133;28;20201;-88
2022/09/21 08:25:52;;;;;;;13.57;9.80;;;;;;;;;;5073430;28;20589;-87
2022/09/21 08:28:19;;;;;;;11.90;9.00;;;;;;;;;;5073428;28;20184;-87
2022/09/21 08:30:46;;;;;;;17.37;9.30;;;;;;;;;;5073379;28;20193;-88
2022/09/21 08:33:13;;;;;;;12.13;9.07;;;;;;;;;;5073685;28;20201;-87
2022/09/21 08:35:40;;;;;;;12.77;9.83;;;;;;;;;;5074589;28;20236;-88
2022/09/21 08:38:07;;;;;;;11.47;8.83;;;;;;;;;;5073268;28;20193;-87
2022/09/21 08:40:35;;;;;;;12.33;9.67;;;;;;;;;;5074045;28;20673;-87
2022/09/21 08:43:04;;;;;;;9.50;8.47;;;;;;;;;;5074742;28;20263;-87
2022/09/21 08:45:34;;;;;;;13.93;9.50;;;;;;;;;;5081241;28;20647;-87
2022/09/21 08:48:03;;;;;;;11.13;9.33;;;;;;;;;;5079811;28;20217;-87
2022/09/21 08:50:32;;;;;;;12.50;8.73;;;;;;;;;;5079834;28;20221;-87
2022/09/21 08:53:02;;;;;;;13.73;9.83;;;;;;;;;;5072336;28;20394;-87
2022/09/21 08:55:29;;;;;;;11.13;8.70;;;;;;;;;;5079363;28;20239;-87
2022/09/21 08:57:56;;;;;;;12.80;8.20;;;;;;;;;;5080244;28;20657;-87
2022/09/21 09:00:24;;;;;;;11.53;9.20;;;;;;;;;;5079047;28;20237;-87
2022/09/21 09:03:02;;;;;;;13.27;9.50;;;;;;;;;;5079924;28;20229;-87
2022/09/21 09:05:35;;;;;;;11.37;8.97;;;;;;;;;;5081296;28;20231;-87
2022/09/21 09:08:11;;;;;;;10.90;9.27;;;;;;;;;;5080351;28;20198;-87
2022/09/21 09:10:40;;;;;;;12.87;10.07;;;;;;;;;;5079834;28;20228;-87
2022/09/21 09:13:17;;;;;;;13.57;9.70;;;;;;;;;;5081060;28;20205;-87
2022/09/21 09:16:00;;;;;;;12.70;10.50;;;;;;;;;;5079030;28;20237;-87
2022/09/21 09:18:31;;;;;;;11.83;9.43;;;;;;;;;;5079604;28;20258;-87
2022/09/21 09:21:01;;;;;;;10.83;8.83;;;;;;;;;;5079092;28;20197;-87
2022/09/21 09:23:31;;;;;;;7.93;7.13;;;;;;;;;;5078481;28;20308;-87
2022/09/21 09:26:01;;;;;;;8.60;6.93;;;;;;;;;;5075666;28;20220;-87
2022/09/21 09:28:31;;;;;;;6.33;5.73;;;;;;;;;;5077128;28;20232;-87
2022/09/21 09:31:01;;;;;;;6.53;5.83;;;;;;;;;;5075707;28;20210;-87
2022/09/21 09:33:31;;;;;;;6.80;6.13;;;;;;;;;;5078888;28;20233;-87
2022/09/21 09:36:02;;;;;;;6.90;6.07;;;;;;;;;;5079872;28;20237;-88
2022/09/21 09:38:32;;;;;;;5.23;4.80;;;;;;;;;;5077647;28;20233;-87
2022/09/21 09:41:07;;;;;;;6.33;5.73;;;;;;;;;;5078726;28;20202;-87
2022/09/21 09:43:39;;;;;;;6.83;5.37;;;;;;;;;;5078715;28;20248;-87
2022/09/21 09:46:10;;;;;;;7.00;4.80;;;;;;;;;;5080902;28;20189;-87
2022/09/21 09:48:50;;;;;;;5.27;4.30;;;;;;;;;;5079630;28;20244;-87
2022/09/21 09:51:18;;;;;;;4.83;4.30;;;;;;;;;;5070991;28;20205;-88
2022/09/21 09:53:45;;;;;;;4.83;4.30;;;;;;;;;;5080141;28;20237;-88
2022/09/21 09:56:13;;;;;;;4.83;4.30;;;;;;;;;;5078823;28;20673;-88
2022/09/21 09:58:43;;;;;;;4.37;3.80;;;;;;;;;;5080266;28;20723;-87
2022/09/21 10:01:34;;;;;;;4.87;4.10;;;;;;;;;;5079704;28;20209;-86
2022/09/21 10:04:05;;;;;;;5.00;4.47;;;;;;;;;;5079789;28;20316;-88
2022/09/21 10:06:32;;;;;;;4.27;3.90;;;;;;;;;;5083428;28;20194;-88
2022/09/21 10:09:00;;;;;;;4.30;3.40;;;;;;;;;;5085520;28;20237;-89
2022/09/21 10:11:35;;;;;;;3.60;3.23;;;;;;;;;;5086805;28;20201;-90
2022/09/21 10:14:08;;;;;;;3.17;2.97;;;;;;;;;;5088160;28;20252;-88
2022/09/21 10:16:40;;;;;;;3.83;3.40;;;;;;;;;;5092079;28;20200;-87
2022/09/21 10:19:14;;;;;;;2.70;2.50;;;;;;;;;;5088404;28;20233;-88
2022/09/21 10:21:43;;;;;;;3.50;3.20;;;;;;;;;;5094698;28;20226;-87
2022/09/21 10:24:16;;;;;;;3.42;3.03;;;;;;;;;;5092923;28;20294;-89
2022/09/21 10:26:45;;;;;;;4.10;2.60;;;;;;;;;;5072543;22;20230;-86
2022/09/21 10:29:20;;;;;;;3.28;2.60;;;;;;;;;;5054693;28;20234;-88
2022/09/21 10:31:58;;;;;;;4.22;2.63;;;;;;;;;;5051374;28;20198;-87
2022/09/21 10:34:26;;;;;;;4.38;2.60;;;;;;;;;;5035650;28;20709;-87
2022/09/21 10:36:54;;;;;;;3.20;2.40;;;;;;;;;;5055116;28;20226;-86
2022/09/21 10:39:26;;;;;;;2.47;2.28;;;;;;;;;;5054384;28;20237;-87
2022/09/21 10:41:54;;;;;;;2.95;2.33;;;;;;;;;;5054923;28;20217;-87
2022/09/21 10:44:23;;;;;;;2.30;2.10;;;;;;;;;;5054184;28;20233;-88
2022/09/21 10:46:51;;;;;;;1.90;1.80;;;;;;;;;;5055156;28;20226;-88
2022/09/21 10:49:22;;;;;;;2.17;1.60;;;;;;;;;;5054292;28;20272;-87
2022/09/21 10:51:51;;;;;;;1.92;1.77;;;;;;;;;;5060102;28;20205;-87
2022/09/21 10:54:21;;;;;;;1.52;1.30;;;;;;;;;;5053797;28;20233;-87
2022/09/21 10:56:55;;;;;;;1.83;1.30;;;;;;;;;;5054505;28;20222;-86
2022/09/21 10:59:23;;;;;;;3.33;1.50;;;;;;;;;;5053984;28;20240;-87
2022/09/21 11:01:51;;;;;;;1.48;1.38;;;;;;;;;;5054272;28;20234;-91
2022/09/21 11:04:24;;;;;;;1.52;1.40;;;;;;;;;;5054076;28;20727;-88
2022/09/21 11:06:53;;;;;;;1.60;1.25;;;;;;;;;;5054025;28;20620;-89
2022/09/21 11:09:22;;;;;;;1.30;1.20;;;;;;;;;;5053952;28;20233;-88
2022/09/21 11:11:53;;;;;;;2.00;1.50;;;;;;;;;;5055706;28;20211;-88
2022/09/21 11:14:28;;;;;;;1.35;1.08;;;;;;;;;;5054663;28;20249;-88
2022/09/21 11:16:56;;;;;;;1.67;1.58;;;;;;;;;;5055187;28;20225;-88
2022/09/21 11:19:30;;;;;;;1.38;1.10;;;;;;;;;;5054193;28;20307;-88
2022/09/21 11:22:01;;;;;;;2.40;0.90;;;;;;;;;;5054526;28;20217;-89
2022/09/21 11:24:33;;;;;;;1.30;1.00;;;;;;;;;;5054220;28;20249;-89
2022/09/21 11:27:04;;;;;;;0.93;0.85;;;;;;;;;;5053705;28;20712;-88
2022/09/21 11:29:34;;;;;;;1.33;1.00;;;;;;;;;;5053910;28;20237;-88
2022/09/21 11:32:16;;;;;;;3.00;1.10;;;;;;;;;;5054358;28;20204;-88
2022/09/21 11:34:52;;;;;;;1.23;1.00;;;;;;;;;;5052136;28;20233;-89
2022/09/21 11:37:24;;;;;;;1.08;0.90;;;;;;;;;;5053806;28;20202;-88
2022/09/21 11:39:57;;;;;;;0.80;0.60;;;;;;;;;;5054201;28;20236;-88
2022/09/21 11:42:32;;;;;;;0.47;0.47;;;;;;;;;;5057308;28;20230;-80
2022/09/21 11:45:00;;;;;;;0.77;0.57;;;;;;;;;;5058940;28;20265;-80
2022/09/21 11:47:39;;;;;;;1.88;0.65;;;;;;;;;;5055021;28;20205;-82
2022/09/21 11:50:16;;;;;;;36.65;1.42;;;;;;;;;;5059933;28;20743;-82
2022/09/21 11:52:49;;;;;;;0.70;0.55;;;;;;;;;;5058790;28;20274;-81
2022/09/21 11:55:22;;;;;;;0.82;0.82;;;;;;;;;;5057333;28;20702;-81
2022/09/21 11:57:52;;;;;;;0.80;0.80;;;;;;;;;;5059039;28;20198;-80
2022/09/21 12:00:20;;;;;;;1.20;1.10;;;;;;;;;;5058081;28;20241;-80
2022/09/21 12:03:05;;;;;;;0.90;0.80;;;;;;;;;;5057933;28;20229;-81
2022/09/21 12:05:36;;;;;;;1.20;1.02;;;;;;;;;;5048757;28;20232;-80
2022/09/21 12:08:25;;;;;;;1.58;1.05;;;;;;;;;;5059196;28;20261;-81
2022/09/21 12:10:57;;;;;;;2.38;1.15;;;;;;;;;;5042338;28;20564;-81
2022/09/21 12:13:31;;;;;;;1.15;1.05;;;;;;;;;;5057801;28;20237;-81
2022/09/21 12:16:02;;;;;;;1.60;1.20;;;;;;;;;;5058473;28;20225;-81
2022/09/21 12:18:35;;;;;;;1.65;0.90;;;;;;;;;;5056157;28;20256;-80
2022/09/21 12:21:06;;;;;;;1.85;1.10;;;;;;;;;;5058205;28;20194;-80
2022/09/21 12:23:38;;;;;;;1.88;0.95;;;;;;;;;;5057568;28;20264;-80
2022/09/21 12:26:06;;;;;;;1.60;1.10;;;;;;;;;;5056874;28;20237;-80
2022/09/21 12:28:37;;;;;;;0.88;0.80;;;;;;;;;;5056563;28;20324;-80
2022/09/21 12:31:06;;;;;;;1.80;0.73;;;;;;;;;;5058252;28;20222;-81
2022/09/21 12:33:36;;;;;;;2.72;1.15;;;;;;;;;;5057010;28;20237;-81
2022/09/21 12:36:08;;;;;;;1.15;0.70;;;;;;;;;;5056964;28;20635;-80
2022/09/21 12:38:37;;;;;;;0.63;0.60;;;;;;;;;;5056073;28;20233;-80
2022/09/21 12:41:07;;;;;;;1.15;0.90;;;;;;;;;;5049132;28;20194;-83
2022/09/21 12:43:37;;;;;;;0.77;0.77;;;;;;;;;;5057374;28;20252;-81
2022/09/21 12:46:07;;;;;;;0.60;0.55;;;;;;;;;;5058116;28;20557;-81
2022/09/21 12:48:37;;;;;;;0.85;0.70;;;;;;;;;;5054117;28;20246;-79
2022/09/21 12:51:08;;;;;;;0.75;0.60;;;;;;;;;;5049985;28;20317;-79
2022/09/21 12:53:37;;;;;;;0.50;0.50;;;;;;;;;;5055249;28;20241;-80
2022/09/21 12:56:06;;;;;;;1.73;0.90;;;;;;;;;;5054782;28;20228;-79
2022/09/21 12:58:47;;;;;;;0.82;0.75;;;;;;;;;;5054226;28;20237;-79
2022/09/21 13:01:19;;;;;;;3.10;0.75;;;;;;;;;;5056164;28;20597;-79
2022/09/21 13:03:51;;;;;;;1.40;0.70;;;;;;;;;;5055888;28;20690;-79
2022/09/21 13:06:49;;;;;;;1.35;0.80;;;;;;;;;;5057214;28;20230;-79
2022/09/21 13:09:19;;;;;;;0.70;0.52;;;;;;;;;;5012560;28;20242;-80
2022/09/21 13:11:52;;;;;;;1.30;0.80;;;;;;;;;;5047716;28;20206;-80
2022/09/21 13:14:20;;;;;;;0.68;0.60;;;;;;;;;;5055674;28;20237;-82
2022/09/21 13:16:54;;;;;;;0.80;0.60;;;;;;;;;;5056520;28;20230;-81
2022/09/21 13:19:22;;;;;;;0.68;0.65;;;;;;;;;;5057726;28;20288;-81
2022/09/21 13:22:12;;;;;;;1.60;0.80;;;;;;;;;;5058751;28;20210;-81
2022/09/21 13:24:41;;;;;;;0.93;0.80;;;;;;;;;;5057623;28;20229;-81
2022/09/21 13:27:09;;;;;;;0.60;0.60;;;;;;;;;;5057470;28;20218;-81
2022/09/21 13:29:38;;;;;;;0.75;0.50;;;;;;;;;;5056306;28;20245;-82
2022/09/21 13:32:21;;;;;;;0.88;0.60;;;;;;;;;;5059332;28;20198;-84
2022/09/21 13:34:50;;;;;;;0.80;0.60;;;;;;;;;;5050728;28;20241;-81
2022/09/21 13:37:32;;;;;;;0.93;0.70;;;;;;;;;;5053253;28;20212;-81
2022/09/21 13:40:18;;;;;;;0.77;0.73;;;;;;;;;;5060386;28;20233;-80
2022/09/21 13:42:48;;;;;;;1.48;0.85;;;;;;;;;;5041495;28;20230;-81
2022/09/21 13:45:33;;;;;;;0.80;0.55;;;;;;;;;;5041610;28;20242;-81
2022/09/21 13:48:12;;;;;;;1.08;1.00;;;;;;;;;;5041325;28;20217;-89
2022/09/21 13:50:42;;;;;;;0.50;0.50;;;;;;;;;;5057357;28;20232;-88
2022/09/21 13:53:17;;;;;;;0.40;0.40;;;;;;;;;;5059092;28;20202;-89
2022/09/21 13:55:50;;;;;;;3.08;0.75;;;;;;;;;;5060453;28;20226;-87
2022/09/21 13:58:22;;;;;;;1.88;0.70;;;;;;;;;;5054082;28;20217;-89
2022/09/21 14:00:52;;;;;;;0.80;0.80;;;;;;;;;;5055306;28;20255;-89
2022/09/21 14:03:22;;;;;;;0.77;0.77;;;;;;;;;;5055656;28;20576;-79
2022/09/21 14:05:51;;;;;;;0.75;0.60;;;;;;;;;;5056331;28;20222;-81
2022/09/21 14:08:20;;;;;;;0.40;0.40;;;;;;;;;;5056547;28;20209;-79
2022/09/21 14:10:50;;;;;;;0.75;0.75;;;;;;;;;;5057086;28;20244;-79
2022/09/21 14:13:25;;;;;;;0.57;0.57;;;;;;;;;;5054462;28;20569;-80
2022/09/21 14:15:52;;;;;;;0.65;0.60;;;;;;;;;;5056047;28;20233;-79
2022/09/21 14:18:21;;;;;;;0.85;0.70;;;;;;;;;;5054502;28;20206;-79
2022/09/21 14:21:07;;;;;;;0.73;0.60;;;;;;;;;;5055340;28;20207;-87
2022/09/21 14:23:35;;;;;;;0.68;0.57;;;;;;;;;;5054957;28;20325;-87
2022/09/21 14:26:03;;;;;;;1.02;1.02;;;;;;;;;;5055311;28;20312;-87
2022/09/21 14:28:36;;;;;;;1.80;0.90;;;;;;;;;;5055607;28;20229;-87
2022/09/21 14:31:05;;;;;;;0.77;0.68;;;;;;;;;;5056081;28;20563;-87
2022/09/21 14:33:35;;;;;;;0.70;0.65;;;;;;;;;;5054767;28;20234;-88
2022/09/21 14:36:07;;;;;;;1.95;0.73;;;;;;;;;;5054802;28;20222;-88
2022/09/21 14:38:39;;;;;;;1.63;0.60;;;;;;;;;;5053722;28;20257;-87
2022/09/21 14:41:08;;;;;;;1.95;0.70;;;;;;;;;;5053953;28;20195;-86
2022/09/21 14:43:38;;;;;;;1.73;0.70;;;;;;;;;;5053858;28;20261;-86
2022/09/21 14:46:18;;;;;;;1.20;0.75;;;;;;;;;;5054941;28;20261;-87
2022/09/21 14:48:51;;;;;;;0.60;0.60;;;;;;;;;;5053698;28;20239;-88
2022/09/21 14:51:21;;;;;;;0.88;0.63;;;;;;;;;;5054631;28;20237;-86
2022/09/21 14:53:59;;;;;;;0.93;0.73;;;;;;;;;;5054028;28;20237;-87
2022/09/21 14:56:37;;;;;;;0.98;0.57;;;;;;;;;;5054808;28;20238;-87
2022/09/21 14:59:16;;;;;;;1.02;0.57;;;;;;;;;;5053876;28;20616;-86
2022/09/21 15:01:55;;;;;;;0.40;0.40;;;;;;;;;;5053780;28;20191;-87